Time;durP1;ratioP1;P1;durP2;ratioP2;P2;SDS_P1;SDS_P2;PMS_P1;PMS_P2;Temp;Humidity;BMP_temperature;BMP_pressure;BME280_temperature;BME280_humidity;BME280_pressure;Samples;Min_cycle;Max_cycle;Signal;HPM_P1;HPM_P2
2023/09/09 00:02:14;;;;;;;;;20.50;20.50;;;;;29.44;41.91;101043.66;4959397;28;46588;-71
2023/09/09 00:04:40;;;;;;;;;20.75;20.50;;;;;29.48;41.82;101050.56;4960545;28;45642;-71
2023/09/09 00:07:11;;;;;;;;;20.00;18.50;;;;;29.47;41.39;101038.94;4956385;28;45429;-72
2023/09/09 00:09:38;;;;;;;;;17.50;15.00;;;;;29.57;41.74;101048.06;4960030;28;45525;-70
2023/09/09 00:12:04;;;;;;;;;20.00;18.75;;;;;29.49;41.78;101034.25;4955645;28;45805;-70
2023/09/09 00:14:29;;;;;;;;;19.50;18.00;;;;;29.56;41.84;101037.38;4958764;28;45457;-70
2023/09/09 00:16:55;;;;;;;;;22.50;19.75;;;;;29.49;41.32;101031.56;4954774;28;46529;-71
2023/09/09 00:19:21;;;;;;;;;21.25;17.50;;;;;29.62;41.15;101045.03;4957577;28;45461;-70
2023/09/09 00:21:47;;;;;;;;;19.75;19.75;;;;;29.53;42.03;101034.91;4959476;28;45609;-71
2023/09/09 00:24:13;;;;;;;;;24.00;18.25;;;;;29.40;41.79;101026.84;4952881;28;45398;-70
2023/09/09 00:26:38;;;;;;;;;22.75;22.75;;;;;29.44;41.69;101040.97;4953443;28;46214;-71
2023/09/09 00:29:04;;;;;;;;;20.00;19.50;;;;;29.37;42.28;101018.97;4952663;28;45744;-72
2023/09/09 00:31:29;;;;;;;;;21.75;21.50;;;;;29.22;41.66;101014.69;4953697;28;45580;-71
2023/09/09 00:33:55;;;;;;;;;19.00;19.00;;;;;29.12;42.12;101018.03;4953414;28;45386;-72
2023/09/09 00:36:20;;;;;;;;;25.25;21.75;;;;;29.16;41.69;101022.25;4954125;28;46578;-71
2023/09/09 00:38:46;;;;;;;;;20.50;18.25;;;;;29.11;41.84;101018.16;4948253;28;45521;-70
2023/09/09 00:41:17;;;;;;;;;20.75;17.75;;;;;29.22;41.87;101042.53;4953416;28;45561;-70
2023/09/09 00:43:46;;;;;;;;;19.75;18.50;;;;;29.14;42.14;101028.72;4952476;28;45712;-71
2023/09/09 00:46:15;;;;;;;;;20.75;19.00;;;;;29.12;42.29;101028.84;4954189;28;46485;-70
2023/09/09 00:48:41;;;;;;;;;24.25;20.25;;;;;28.96;42.22;101014.69;4953606;28;45745;-72
2023/09/09 00:51:11;;;;;;;;;19.50;19.00;;;;;28.97;42.46;101021.78;4953954;28;45549;-70
2023/09/09 00:53:37;;;;;;;;;21.00;19.25;;;;;29.05;42.48;101023.97;4954593;28;45493;-71
2023/09/09 00:56:05;;;;;;;;;18.00;18.00;;;;;29.17;42.64;101037.44;4950699;28;45415;-71
2023/09/09 00:58:31;;;;;;;;;18.25;18.25;;;;;29.12;42.23;101026.13;4952456;28;45448;-72
2023/09/09 01:00:57;;;;;;;;;23.00;21.00;;;;;29.15;42.72;101041.22;4951955;28;45324;-71
2023/09/09 01:03:22;;;;;;;;;19.75;19.25;;;;;29.09;42.52;101036.25;4953565;28;45281;-73
2023/09/09 01:05:49;;;;;;;;;22.75;19.75;;;;;29.02;42.62;101041.22;4953216;28;46243;-71
2023/09/09 01:08:25;;;;;;;;;20.50;16.75;;;;;28.94;42.55;101030.09;4953800;28;45516;-72
2023/09/09 01:10:50;;;;;;;;;22.50;21.50;;;;;28.73;42.79;101011.75;4951037;28;45588;-71
2023/09/09 01:13:16;;;;;;;;;24.25;23.25;;;;;28.87;42.96;101044.97;4952803;28;45441;-71
2023/09/09 01:15:42;;;;;;;;;23.75;19.25;;;;;28.78;43.35;101032.16;4951947;28;46712;-67
2023/09/09 01:18:07;;;;;;;;;17.25;17.25;;;;;28.81;43.57;101045.41;4954757;28;45367;-67
2023/09/09 01:20:37;;;;;;;;;25.50;21.50;;;;;28.68;43.59;101030.09;4955753;28;45339;-67
2023/09/09 01:23:03;;;;;;;;;23.33;21.67;;;;;28.74;43.42;101034.22;4954816;28;45509;-67
2023/09/09 01:25:29;;;;;;;;;22.00;21.00;;;;;28.72;43.74;101028.06;4954549;28;45344;-67
2023/09/09 01:27:54;;;;;;;;;24.33;24.33;;;;;28.72;43.84;101037.00;4954534;28;45366;-68
2023/09/09 01:30:20;;;;;;;;;23.33;21.00;;;;;28.75;43.51;101039.47;4954484;28;45440;-67
2023/09/09 01:32:46;;;;;;;;;23.25;20.00;;;;;28.64;44.09;101031.28;4954758;28;45441;-67
2023/09/09 01:35:11;;;;;;;;;21.00;18.50;;;;;28.57;43.92;101019.22;4954549;28;45965;-67
2023/09/09 01:37:37;;;;;;;;;27.00;22.33;;;;;28.44;43.72;100994.91;4966238;28;45409;-66
2023/09/09 01:40:10;;;;;;;;;22.67;22.33;;;;;28.54;43.68;101008.63;4969403;28;45296;-66
2023/09/09 01:42:37;;;;;;;;;22.50;18.75;;;;;28.60;43.87;101032.47;4965044;28;45735;-67
2023/09/09 01:45:03;;;;;;;;;23.25;21.50;;;;;28.63;44.16;101039.47;4971445;28;46088;-67
2023/09/09 01:47:29;;;;;;;;;21.75;21.50;;;;;28.64;43.85;101036.69;4958849;28;45530;-68
2023/09/09 01:49:54;;;;;;;;;21.50;20.50;;;;;28.64;43.80;101039.38;4954179;28;45446;-67
2023/09/09 01:52:20;;;;;;;;;21.50;19.25;;;;;28.60;44.08;101023.53;4953563;28;45386;-68
2023/09/09 01:54:46;;;;;;;;;25.50;20.25;;;;;28.66;43.70;101045.50;4982263;28;46718;-66
2023/09/09 01:57:11;;;;;;;;;20.75;18.25;;;;;28.65;44.01;101033.00;4954200;28;45445;-66
2023/09/09 01:59:37;;;;;;;;;17.75;17.75;;;;;28.62;43.87;101037.75;4954563;28;45425;-66
2023/09/09 02:02:02;;;;;;;;;20.50;18.00;;;;;28.60;43.52;101024.38;4954335;28;45321;-66
2023/09/09 02:04:28;;;;;;;;;19.00;17.00;;;;;28.65;43.87;101029.44;4954150;28;45999;-67
2023/09/09 02:06:53;;;;;;;;;21.25;21.25;;;;;28.73;43.51;101033.31;4954341;28;45563;-66
2023/09/09 02:09:19;;;;;;;;;19.50;19.25;;;;;28.68;43.65;101027.38;4954435;28;45605;-67
2023/09/09 02:11:44;;;;;;;;;21.00;18.50;;;;;28.76;43.56;101029.56;4954389;28;45497;-68
2023/09/09 02:14:10;;;;;;;;;22.00;20.50;;;;;28.70;43.80;101024.59;4955351;28;46663;-67
2023/09/09 02:16:36;;;;;;;;;21.50;21.00;;;;;28.75;44.10;101038.63;4955294;28;45394;-67
2023/09/09 02:19:01;;;;;;;;;23.75;20.25;;;;;28.72;44.07;101033.44;4955325;28;45372;-66
2023/09/09 02:21:29;;;;;;;;;19.50;19.00;;;;;28.70;44.02;101036.25;4955122;28;45343;-68
2023/09/09 02:23:54;;;;;;;;;23.00;21.33;;;;;28.60;44.49;101040.56;4957532;28;46404;-67
2023/09/09 02:26:19;;;;;;;;;23.00;17.75;;;;;28.53;44.55;101037.41;4957998;28;45497;-66
2023/09/09 02:28:46;;;;;;;;;20.25;18.50;;;;;28.41;44.82;101015.81;4955353;28;45658;-68
2023/09/09 02:31:11;;;;;;;;;16.50;16.50;;;;;28.40;45.11;101022.16;4957236;28;45460;-67
2023/09/09 02:33:37;;;;;;;;;23.50;20.50;;;;;28.39;45.09;101031.22;4956437;28;46103;-68
2023/09/09 02:36:03;;;;;;;;;19.00;18.75;;;;;28.36;44.95;101032.28;4956469;28;45450;-67
2023/09/09 02:38:28;;;;;;;;;18.50;18.50;;;;;28.41;44.87;101034.66;4956777;28;45335;-66
2023/09/09 02:40:54;;;;;;;;;25.00;19.25;;;;;28.36;45.26;101029.59;4956998;28;45394;-67
2023/09/09 02:43:19;;;;;;;;;21.50;18.75;;;;;28.37;45.17;101036.69;4956931;28;46504;-66
2023/09/09 02:45:45;;;;;;;;;20.00;18.50;;;;;28.37;45.29;101027.75;4956882;28;45467;-65
2023/09/09 02:48:10;;;;;;;;;18.00;16.25;;;;;28.34;44.91;101023.44;4956978;28;45377;-66
2023/09/09 02:50:36;;;;;;;;;21.00;16.75;;;;;28.33;44.89;101029.78;4956767;28;45376;-66
2023/09/09 02:53:02;;;;;;;;;16.25;14.25;;;;;28.22;44.86;101017.06;4956859;28;45771;-67
2023/09/09 02:55:27;;;;;;;;;19.25;17.50;;;;;28.29;45.24;101026.44;4956597;28;45411;-65
2023/09/09 02:57:57;;;;;;;;;20.50;18.50;;;;;28.25;45.27;101018.69;4956429;28;45315;-66
2023/09/09 03:00:22;;;;;;;;;19.50;19.50;;;;;28.33;45.25;101025.28;4969708;28;45492;-66
2023/09/09 03:02:49;;;;;;;;;19.50;18.25;;;;;28.25;45.19;101032.16;4963735;28;46261;-65
2023/09/09 03:05:15;;;;;;;;;19.00;16.50;;;;;28.21;45.22;101027.94;4962363;28;45291;-66
2023/09/09 03:07:44;;;;;;;;;18.50;14.50;;;;;28.27;45.12;101020.31;4966883;28;45423;-68
2023/09/09 03:10:10;;;;;;;;;12.50;12.00;;;;;28.28;45.00;101024.69;4965708;28;45496;-67
2023/09/09 03:12:35;;;;;;;;;16.25;16.25;;;;;28.29;45.26;101030.97;4977210;28;45366;-66
2023/09/09 03:15:05;;;;;;;;;19.00;16.25;;;;;28.29;44.93;101031.84;4962680;28;45402;-66
2023/09/09 03:17:31;;;;;;;;;15.25;15.00;;;;;28.24;44.88;101017.81;4972732;28;45479;-67
2023/09/09 03:19:56;;;;;;;;;18.00;17.50;;;;;28.25;45.31;101024.91;4976015;28;45239;-67
2023/09/09 03:22:22;;;;;;;;;16.25;15.50;;;;;28.19;45.23;101030.75;4975292;28;45555;-67
2023/09/09 03:24:47;;;;;;;;;17.75;16.00;;;;;28.13;45.62;101025.75;4974355;28;45476;-67
2023/09/09 03:27:13;;;;;;;;;15.50;15.50;;;;;28.07;45.23;101023.47;4977019;28;45394;-67
2023/09/09 03:29:39;;;;;;;;;17.75;15.50;;;;;28.05;45.55;101017.34;4977268;28;45453;-66
2023/09/09 03:32:05;;;;;;;;;19.75;16.50;;;;;28.09;45.36;101017.00;4976930;28;45757;-67
2023/09/09 03:34:30;;;;;;;;;15.75;14.00;;;;;28.09;45.59;101016.16;4975553;28;45449;-67
2023/09/09 03:36:56;;;;;;;;;16.00;16.00;;;;;28.00;45.78;101003.31;4975677;28;45650;-66
2023/09/09 03:39:22;;;;;;;;;6.25;5.00;;;;;28.00;45.71;101011.38;4976630;28;45449;-66
2023/09/09 03:41:48;;;;;;;;;15.50;15.25;;;;;28.04;46.06;101015.59;4975501;28;46262;-68
2023/09/09 03:44:13;;;;;;;;;17.50;16.75;;;;;27.95;46.16;101022.44;4975391;28;45762;-67
2023/09/09 03:46:39;;;;;;;;;19.25;15.25;;;;;27.72;46.87;100994.34;4976021;28;45401;-66
2023/09/09 03:49:05;;;;;;;;;16.25;15.75;;;;;27.80;46.66;101029.69;4977279;28;45507;-66
2023/09/09 03:51:30;;;;;;;;;17.25;15.25;;;;;27.77;46.72;101016.44;4975508;28;45946;-66
2023/09/09 03:53:56;;;;;;;;;18.75;15.25;;;;;27.85;46.62;101016.81;4975600;28;45433;-67
2023/09/09 03:56:21;;;;;;;;;19.50;16.25;;;;;27.75;46.44;101020.19;4974236;28;45519;-66
2023/09/09 03:58:47;;;;;;;;;16.00;14.00;;;;;27.82;46.45;101022.38;4970889;28;46736;-66
2023/09/09 04:01:13;;;;;;;;;17.00;15.75;;;;;27.84;46.32;101019.63;4967952;28;45379;-67
2023/09/09 04:03:39;;;;;;;;;16.75;15.00;;;;;27.84;46.72;101025.88;4973699;28;45520;-67
2023/09/09 04:06:08;;;;;;;;;17.75;17.75;;;;;27.78;46.79;101026.22;4976150;28;45955;-67
2023/09/09 04:08:35;;;;;;;;;18.50;17.25;;;;;27.70;46.51;101020.50;4974930;28;45466;-66
2023/09/09 04:11:04;;;;;;;;;16.00;13.25;;;;;27.73;46.82;101014.91;4974910;28;46117;-66
2023/09/09 04:13:30;;;;;;;;;17.25;15.75;;;;;27.69;46.95;101003.50;4990114;27;45422;-67
2023/09/09 04:15:57;;;;;;;;;15.50;14.25;;;;;27.59;46.80;100978.13;4972510;28;45271;-67
2023/09/09 04:18:27;;;;;;;;;16.00;14.00;;;;;27.74;46.86;101013.97;4975588;28;45455;-66
2023/09/09 04:20:53;;;;;;;;;14.25;13.75;;;;;27.82;47.13;101034.97;4975895;28;46162;-66
2023/09/09 04:23:18;;;;;;;;;18.00;15.75;;;;;27.75;47.51;101036.34;4975026;28;45219;-66
2023/09/09 04:25:45;;;;;;;;;17.25;15.50;;;;;27.69;47.47;101040.28;4973782;28;45481;-66
2023/09/09 04:28:11;;;;;;;;;16.75;15.00;;;;;27.64;47.89;101039.72;4975242;28;45254;-66
2023/09/09 04:30:41;;;;;;;;;17.33;16.33;;;;;27.58;47.80;101035.63;4974756;28;45972;-65
2023/09/09 04:33:07;;;;;;;;;17.50;16.75;;;;;27.63;47.57;101038.88;4975024;28;45413;-66
2023/09/09 04:35:33;;;;;;;;;17.50;15.00;;;;;27.56;47.84;101032.16;4974962;28;45244;-67
2023/09/09 04:37:59;;;;;;;;;17.00;16.00;;;;;27.54;47.93;101043.97;4975234;28;45452;-66
2023/09/09 04:40:25;;;;;;;;;15.00;14.25;;;;;27.38;48.29;101019.88;4976042;28;45946;-66
2023/09/09 04:42:50;;;;;;;;;18.75;14.50;;;;;27.40;48.42;101034.97;4974535;28;45565;-65
2023/09/09 04:45:16;;;;;;;;;18.25;15.50;;;;;27.34;48.62;101038.06;4973963;28;45345;-65
2023/09/09 04:47:41;;;;;;;;;16.00;14.50;;;;;27.23;48.75;101032.50;4973965;28;45596;-66
2023/09/09 04:50:07;;;;;;;;;15.25;13.50;;;;;27.27;48.72;101045.66;4974419;28;46026;-67
2023/09/09 04:52:32;;;;;;;;;17.75;15.75;;;;;27.28;48.49;101041.13;4973144;28;45837;-67
2023/09/09 04:54:58;;;;;;;;;15.50;14.75;;;;;27.32;48.26;101039.97;4974865;28;45493;-66
2023/09/09 04:57:24;;;;;;;;;20.25;14.50;;;;;27.33;48.44;101038.16;4974716;28;45599;-67
2023/09/09 04:59:49;;;;;;;;;18.00;15.75;;;;;27.34;48.35;101038.06;4975303;28;45532;-67
2023/09/09 05:02:15;;;;;;;;;15.00;13.75;;;;;27.29;48.48;101042.88;4975095;28;45559;-66
2023/09/09 05:04:40;;;;;;;;;16.00;16.00;;;;;27.29;48.60;101042.88;4974310;28;45500;-66
2023/09/09 05:07:06;;;;;;;;;16.00;15.25;;;;;27.31;48.58;101038.22;4974601;28;45501;-67
2023/09/09 05:09:31;;;;;;;;;20.25;16.75;;;;;27.35;48.12;101044.28;4974263;28;45342;-67
2023/09/09 05:11:57;;;;;;;;;14.00;13.00;;;;;27.32;48.39;101033.75;4974489;28;45437;-67
2023/09/09 05:14:22;;;;;;;;;18.50;15.75;;;;;27.38;48.32;101044.94;4973248;28;45373;-66
2023/09/09 05:16:52;;;;;;;;;18.50;17.25;;;;;27.37;48.34;101032.47;4971716;28;45425;-66
2023/09/09 05:19:22;;;;;;;;;19.00;18.00;;;;;27.19;48.59;101015.69;4988967;27;46703;-66
2023/09/09 05:21:48;;;;;;;;;17.67;16.00;;;;;27.05;48.49;101005.78;4974307;28;45231;-66
2023/09/09 05:24:14;;;;;;;;;19.75;16.25;;;;;27.37;48.50;101051.31;4974237;28;45487;-66
2023/09/09 05:26:40;;;;;;;;;19.50;15.75;;;;;27.37;48.56;101047.75;4974483;28;45425;-66
2023/09/09 05:29:05;;;;;;;;;16.00;16.00;;;;;27.32;48.42;101036.44;4973540;28;45403;-67
2023/09/09 05:31:31;;;;;;;;;19.00;16.00;;;;;27.34;48.53;101048.81;4974008;28;45536;-67
2023/09/09 05:33:56;;;;;;;;;15.75;14.75;;;;;27.21;49.00;101047.84;4973988;28;45723;-67
2023/09/09 05:36:22;;;;;;;;;21.67;17.00;;;;;27.27;48.53;101047.47;4974376;28;45453;-66
2023/09/09 05:38:47;;;;;;;;;21.67;15.33;;;;;27.29;48.53;101056.31;4974950;28;46625;-66
2023/09/09 05:41:13;;;;;;;;;18.67;18.67;;;;;27.16;49.43;101058.00;4973304;28;45467;-66
2023/09/09 05:43:39;;;;;;;;;26.33;24.00;;;;;26.99;49.81;101070.66;4974619;28;45535;-65
2023/09/09 05:46:05;;;;;;;;;25.33;22.67;;;;;26.93;50.03;101075.53;4975232;28;45442;-63
2023/09/09 05:48:31;;;;;;;;;23.67;21.33;;;;;26.93;50.29;101062.97;4973336;28;45484;-65
2023/09/09 05:50:58;;;;;;;;;25.33;23.67;;;;;26.85;50.71;101058.06;4974277;28;45474;-68
2023/09/09 05:53:23;;;;;;;;;25.33;21.67;;;;;26.76;50.81;101074.75;4947065;28;45431;-68
2023/09/09 05:55:49;;;;;;;;;25.67;19.67;;;;;26.68;50.55;101055.56;4974167;28;45361;-68
2023/09/09 05:58:15;;;;;;;;;22.33;22.00;;;;;26.84;50.80;101071.63;4977043;28;46167;-68
2023/09/09 06:00:40;;;;;;;;;26.67;24.00;;;;;26.84;50.74;101066.25;4975762;28;45315;-68
2023/09/09 06:03:06;;;;;;;;;28.33;26.00;;;;;26.77;51.27;101075.63;4976498;28;45552;-68
2023/09/09 06:05:31;;;;;;;;;23.33;20.67;;;;;26.74;51.09;101065.06;4975719;27;45715;-68
2023/09/09 06:07:57;;;;;;;;;23.33;19.67;;;;;26.80;51.19;101075.44;4976903;28;45417;-68
2023/09/09 06:10:23;;;;;;;;;24.67;23.00;;;;;26.86;50.78;101064.28;4977019;28;45571;-68
2023/09/09 06:12:49;;;;;;;;;27.33;26.67;;;;;26.81;50.40;101080.72;4977262;28;45487;-67
2023/09/09 06:15:15;;;;;;;;;25.00;25.00;;;;;26.74;50.85;101070.44;4974083;28;45600;-68
2023/09/09 06:17:45;;;;;;;;;22.67;22.33;;;;;26.68;50.90;101068.97;4981827;28;46859;-68
2023/09/09 06:20:11;;;;;;;;;25.67;23.33;;;;;26.85;50.60;101066.13;4992960;28;45549;-68
2023/09/09 06:22:36;;;;;;;;;21.00;20.33;;;;;26.95;50.34;101077.19;4975848;28;45553;-69
2023/09/09 06:25:03;;;;;;;;;26.00;24.67;;;;;26.97;50.07;101080.63;4978050;28;45456;-69
2023/09/09 06:27:29;;;;;;;;;29.67;21.67;;;;;26.88;49.69;101057.00;4977054;28;46528;-66
2023/09/09 06:29:54;;;;;;;;;23.33;22.00;;;;;27.04;49.77;101082.00;4976890;28;45457;-69
2023/09/09 06:32:20;;;;;;;;;26.33;22.33;;;;;26.92;49.89;101060.38;4974816;28;45348;-66
2023/09/09 06:34:46;;;;;;;;;19.67;19.67;;;;;27.17;49.67;101095.56;4977836;28;45572;-67
2023/09/09 06:37:12;;;;;;;;;24.33;22.00;;;;;27.25;49.33;101097.78;4976364;28;46106;-68
2023/09/09 06:39:38;;;;;;;;;22.33;20.33;;;;;26.98;49.43;101051.94;4975979;28;45464;-68
2023/09/09 06:42:04;;;;;;;;;30.00;25.33;;;;;27.21;49.58;101090.88;4975934;28;45397;-66
2023/09/09 06:44:29;;;;;;;;;23.67;22.33;;;;;27.33;49.42;101100.84;4974542;28;46673;-67
2023/09/09 06:46:55;;;;;;;;;26.00;20.67;;;;;27.35;49.31;101093.56;4965207;28;45995;-68
2023/09/09 06:49:20;;;;;;;;;24.67;22.67;;;;;27.37;49.48;101091.66;4975926;28;45366;-66
2023/09/09 06:51:47;;;;;;;;;26.67;23.67;;;;;27.47;49.38;101091.94;4976382;28;45348;-71
2023/09/09 06:54:12;;;;;;;;;25.00;21.33;;;;;27.35;49.38;101092.69;4976669;28;45391;-69
2023/09/09 06:56:38;;;;;;;;;27.67;22.67;;;;;27.37;49.19;101097.03;4976114;28;46149;-70
2023/09/09 06:59:03;;;;;;;;;23.67;21.67;;;;;27.24;49.15;101082.59;4975689;28;45461;-71
2023/09/09 07:01:29;;;;;;;;;22.00;19.00;;;;;27.21;49.39;101091.72;4976098;28;45402;-71
2023/09/09 07:03:55;;;;;;;;;23.67;20.33;;;;;27.18;49.48;101099.97;4976328;28;45563;-67
2023/09/09 07:06:20;;;;;;;;;22.00;21.33;;;;;27.15;49.60;101091.25;4975912;28;45778;-71
2023/09/09 07:08:47;;;;;;;;;19.00;19.00;;;;;27.08;49.41;101098.81;4975008;28;45476;-67
2023/09/09 07:11:13;;;;;;;;;25.00;21.33;;;;;27.05;49.31;101077.47;4975819;28;45565;-71
2023/09/09 07:13:39;;;;;;;;;25.33;22.67;;;;;27.01;49.38;101084.88;4990807;28;45603;-71
2023/09/09 07:16:05;;;;;;;;;19.00;17.67;;;;;26.70;49.06;101025.91;4972364;28;45535;-71
2023/09/09 07:18:31;;;;;;;;;21.67;17.67;;;;;27.08;48.82;101077.31;4975831;28;45485;-71
2023/09/09 07:20:58;;;;;;;;;20.00;19.67;;;;;26.69;48.67;101016.09;4976168;28;45596;-70
2023/09/09 07:23:23;;;;;;;;;20.67;19.00;;;;;27.12;48.46;101075.28;4977745;28;45547;-71
2023/09/09 07:25:49;;;;;;;;;16.33;16.33;;;;;27.06;48.73;101061.25;4976332;28;45581;-72
2023/09/09 07:28:15;;;;;;;;;19.00;15.67;;;;;27.26;48.50;101102.19;4975910;28;45522;-70
2023/09/09 07:30:41;;;;;;;;;21.67;18.00;;;;;27.24;48.31;101098.75;4973955;28;45405;-72
2023/09/09 07:33:06;;;;;;;;;24.00;17.00;;;;;27.25;48.37;101104.03;4975633;28;45551;-69
2023/09/09 07:35:35;;;;;;;;;19.67;19.00;;;;;27.24;48.31;101074.53;4975661;28;45911;-70
2023/09/09 07:38:04;;;;;;;;;17.33;16.33;;;;;27.35;48.36;101080.13;4974264;28;45454;-66
2023/09/09 07:40:30;;;;;;;;;19.67;16.00;;;;;27.64;48.39;101098.91;4991145;27;45535;-67
2023/09/09 07:42:56;;;;;;;;;19.50;16.50;;;;;27.70;47.60;101080.56;4976588;28;45459;-70
2023/09/09 07:45:23;;;;;;;;;15.50;14.50;;;;;27.92;47.19;101095.34;4976648;28;45884;-68
2023/09/09 07:47:49;;;;;;;;;14.00;14.00;;;;;27.96;46.83;101098.72;4975447;28;45464;-70
2023/09/09 07:50:18;;;;;;;;;19.00;16.00;;;;;27.84;46.62;101068.94;4975502;28;45423;-67
2023/09/09 07:52:43;;;;;;;;;14.25;13.50;;;;;27.99;46.72;101088.59;4975165;28;45499;-69
2023/09/09 07:55:09;;;;;;;;;20.00;16.50;;;;;27.96;46.75;101094.19;4974779;28;45477;-71
2023/09/09 07:57:35;;;;;;;;;17.25;15.00;;;;;27.93;45.92;101105.16;4975216;28;45523;-71
2023/09/09 08:00:02;;;;;;;;;17.75;16.50;;;;;27.76;46.14;101060.44;4974093;28;45651;-73
2023/09/09 08:02:28;;;;;;;;;19.50;13.75;;;;;28.00;46.27;101095.72;4975112;28;45473;-72
2023/09/09 08:04:53;;;;;;;;;22.00;14.25;;;;;28.10;45.68;101093.28;4974641;28;45374;-70
2023/09/09 08:07:19;;;;;;;;;16.00;15.00;;;;;28.07;45.56;101086.28;4975657;28;45338;-68
2023/09/09 08:09:44;;;;;;;;;19.00;14.00;;;;;28.03;45.73;101111.66;4975736;28;45462;-70
2023/09/09 08:12:13;;;;;;;;;17.75;13.75;;;;;28.16;45.80;101105.47;4973478;28;45399;-68
2023/09/09 08:14:42;;;;;;;;;15.00;14.00;;;;;28.27;45.52;101100.25;4974710;28;45817;-69
2023/09/09 08:17:08;;;;;;;;;16.25;14.75;;;;;28.26;45.19;101071.56;4988185;27;45370;-71
2023/09/09 08:19:34;;;;;;;;;16.50;16.00;;;;;28.17;45.28;101077.59;4976484;28;45294;-71
2023/09/09 08:21:59;;;;;;;;;18.75;18.00;;;;;28.44;45.79;101105.34;4976386;28;45478;-69
2023/09/09 08:24:28;;;;;;;;;17.50;15.25;;;;;28.35;45.25;101057.47;4975951;28;46048;-72
2023/09/09 08:26:54;;;;;;;;;21.00;17.00;;;;;28.69;45.00;101095.66;4976034;28;45406;-73
2023/09/09 08:29:20;;;;;;;;;21.00;17.25;;;;;28.75;44.54;101117.63;4974898;28;45369;-73
2023/09/09 08:31:49;;;;;;;;;19.50;16.50;;;;;28.83;44.12;101103.66;4974419;28;45562;-67
2023/09/09 08:34:15;;;;;;;;;19.25;17.00;;;;;28.77;44.22;101087.03;4974128;28;46675;-71
2023/09/09 08:36:41;;;;;;;;;17.00;17.00;;;;;29.04;44.43;101112.06;4974533;28;45398;-68
2023/09/09 08:39:11;;;;;;;;;20.25;18.25;;;;;28.99;43.51;101089.94;4973095;28;45334;-68
2023/09/09 08:42:05;;;;;;;;;18.25;16.75;;;;;29.04;43.28;101100.41;4974463;28;45376;-68
2023/09/09 08:45:14;;;;;;;;;19.75;18.00;;;;;28.99;43.20;101100.75;4973039;28;46816;-68
2023/09/09 08:47:41;;;;;;;;;20.00;18.50;;;;;28.88;43.24;101101.50;4949612;28;45399;-66
2023/09/09 08:50:09;;;;;;;;;18.00;18.00;;;;;28.91;42.84;101106.66;4977521;28;45482;-66
2023/09/09 08:52:35;;;;;;;;;18.75;16.75;;;;;29.00;43.05;101093.50;4960320;28;45512;-66
2023/09/09 08:55:01;;;;;;;;;16.75;15.75;;;;;28.74;43.44;101053.94;4954643;28;45703;-67
2023/09/09 08:57:28;;;;;;;;;20.00;18.25;;;;;29.02;42.99;101095.16;4956455;28;45829;-67
2023/09/09 08:59:57;;;;;;;;;18.00;17.50;;;;;29.22;42.74;101106.41;4970024;28;45444;-66
2023/09/09 09:02:23;;;;;;;;;19.00;18.75;;;;;29.40;42.78;101113.19;4958189;28;45472;-66
2023/09/09 09:04:52;;;;;;;;;22.50;16.25;;;;;29.42;42.49;101100.44;4954560;28;45587;-66
2023/09/09 09:07:18;;;;;;;;;21.00;16.75;;;;;29.29;42.34;101068.09;4958053;28;46422;-69
2023/09/09 09:09:43;;;;;;;;;21.50;17.00;;;;;29.54;41.83;101075.28;4958877;28;45430;-66
2023/09/09 09:12:11;;;;;;;;;20.75;20.50;;;;;29.78;42.14;101085.25;4955023;28;45534;-67
2023/09/09 09:14:47;;;;;;;;;19.00;18.00;;;;;29.89;42.26;101104.25;4957490;28;45413;-67
2023/09/09 09:17:19;;;;;;;;;20.00;19.00;;;;;29.92;41.48;101085.16;4958373;28;45665;-67
2023/09/09 09:19:45;;;;;;;;;18.25;17.50;;;;;30.04;41.59;101104.09;4956836;28;45527;-67
2023/09/09 09:22:13;;;;;;;;;20.25;19.00;;;;;29.67;41.31;101056.38;4951514;28;45507;-66
2023/09/09 09:24:46;;;;;;;;;18.75;18.75;;;;;29.92;41.93;101100.47;4951791;28;47196;-65
2023/09/09 09:27:12;;;;;;;;;21.75;19.50;;;;;30.02;41.81;101105.06;4957247;28;45461;-66
2023/09/09 09:29:45;;;;;;;;;25.00;20.25;;;;;29.99;41.49;101094.50;4954549;28;45440;-69
2023/09/09 09:32:12;;;;;;;;;23.00;18.50;;;;;29.95;41.32;101093.00;4954828;28;45847;-66
2023/09/09 09:34:38;;;;;;;;;21.50;18.50;;;;;30.06;41.83;101096.75;4958308;28;46244;-66
2023/09/09 09:37:15;;;;;;;;;22.25;15.75;;;;;30.27;41.52;101102.41;4959689;28;45496;-66
2023/09/09 09:39:44;;;;;;;;;16.00;16.00;;;;;30.18;41.39;101061.59;4953469;28;45490;-67
2023/09/09 09:42:13;;;;;;;;;23.00;15.75;;;;;30.40;41.09;101070.78;4954871;28;45473;-67
2023/09/09 09:44:39;;;;;;;;;15.75;15.75;;;;;30.68;41.00;101101.94;4952550;28;47053;-68
2023/09/09 09:47:08;;;;;;;;;20.75;20.50;;;;;30.79;40.57;101101.97;4956258;28;45299;-66
2023/09/09 09:49:41;;;;;;;;;20.25;19.25;;;;;30.64;40.07;101065.34;4956198;28;45729;-66
2023/09/09 09:52:08;;;;;;;;;20.75;19.50;;;;;31.02;39.96;101105.63;4957678;28;45528;-66
2023/09/09 09:54:35;;;;;;;;;28.00;21.75;;;;;31.02;40.27;101102.94;4957267;28;46510;-67
2023/09/09 09:57:03;;;;;;;;;21.00;19.25;;;;;31.12;40.03;101103.06;4954532;28;45394;-66
2023/09/09 09:59:31;;;;;;;;;23.25;21.50;;;;;31.31;39.39;101107.88;4957592;28;45936;-67
2023/09/09 10:01:59;;;;;;;;;22.50;18.50;;;;;31.07;38.37;101059.28;4958929;28;45337;-67
2023/09/09 10:04:33;;;;;;;;;23.25;21.00;;;;;31.31;38.73;101077.25;4955043;28;47528;-66
2023/09/09 10:07:03;;;;;;;;;20.00;19.50;;;;;31.57;38.14;101097.69;4956413;28;45965;-67
2023/09/09 10:09:51;;;;;;;;;19.50;18.25;;;;;31.69;37.64;101099.41;4958478;28;46416;-68
2023/09/09 10:12:48;;;;;;;;;19.25;18.50;;;;;31.84;37.48;101094.56;4953962;28;45578;-67
2023/09/09 10:15:15;;;;;;;;;20.50;20.00;;;;;31.92;37.67;101099.38;4955575;28;46332;-65
2023/09/09 10:17:42;;;;;;;;;22.20;18.20;;;;;31.90;36.88;101083.25;4953297;28;46019;-66
2023/09/09 10:20:09;;;;;;;;;24.50;16.00;;;;;31.99;37.15;101095.22;4956062;28;45448;-67
2023/09/09 10:22:36;;;;;;;;;22.75;19.25;;;;;32.04;36.34;101095.69;4957749;28;45409;-66
2023/09/09 10:25:03;;;;;;;;;21.75;19.75;;;;;32.14;36.33;101073.25;4951348;28;45593;-68
2023/09/09 10:27:33;;;;;;;;;21.50;20.00;;;;;32.10;35.81;101072.63;4949992;28;45549;-65
2023/09/09 10:30:03;;;;;;;;;21.50;21.00;;;;;31.93;35.46;101035.22;4954151;28;45670;-65
2023/09/09 10:32:31;;;;;;;;;22.50;18.75;;;;;32.28;35.75;101083.78;4956624;28;45459;-66
2023/09/09 10:35:00;;;;;;;;;20.00;20.00;;;;;32.16;35.67;101049.59;4954110;28;45528;-65
2023/09/09 10:37:28;;;;;;;;;19.80;18.00;;;;;32.13;35.82;101010.06;4955198;28;46507;-66
2023/09/09 10:39:54;;;;;;;;;21.75;21.25;;;;;32.46;35.17;101049.69;4957421;28;45411;-65
2023/09/09 10:42:20;;;;;;;;;21.50;19.50;;;;;32.67;35.15;101065.97;4954119;28;45470;-65
2023/09/09 10:44:54;;;;;;;;;22.00;19.50;;;;;32.63;34.87;101055.53;4960955;28;46005;-65
2023/09/09 10:47:19;;;;;;;;;20.75;17.50;;;;;32.93;34.64;101071.84;4953589;28;45530;-65
2023/09/09 10:49:45;;;;;;;;;20.50;19.00;;;;;32.72;34.74;101008.63;4959808;28;45405;-65
2023/09/09 10:52:37;;;;;;;;;21.00;21.00;;;;;33.32;34.84;101063.09;4956377;28;45412;-65
2023/09/09 10:55:13;;;;;;;;;19.25;18.00;;;;;33.37;34.82;101048.09;4961919;28;46259;-65
2023/09/09 10:57:39;;;;;;;;;22.50;20.50;;;;;33.62;34.33;101056.75;4958102;28;46048;-66
2023/09/09 11:00:14;;;;;;;;;21.00;19.00;;;;;33.77;33.31;101052.66;4957241;28;45377;-65
2023/09/09 11:02:46;;;;;;;;;21.25;20.00;;;;;33.78;33.13;101061.66;4960604;28;45445;-66
2023/09/09 11:05:13;;;;;;;;;22.50;21.00;;;;;33.84;33.51;101061.13;4956413;28;45618;-66
2023/09/09 11:07:43;;;;;;;;;19.00;19.00;;;;;33.71;33.22;101012.47;4958296;28;45690;-66
2023/09/09 11:10:16;;;;;;;;;24.00;20.60;;;;;34.04;32.72;101036.69;4960799;28;45994;-64